750XP LGKR-LLER
Flight info
| Callsign | 750XP |
|---|---|
| Flight time | 2h 11m |
| Altitude | 45000 |
| Route | MALED UA14 ARA UL612 SIT DCT KUMBI DCT LOVEX DCT YELAD DCT NURIT |
| Aircraft | C750/M-SBDE3FGHRWXY/S |
Departure
| Time | 2026-04-27 15:18 |
|---|---|
| Airport | Corfu Ioannis Kapodistrias International Airport (LGKR) |
Arrival
| Time | 2026-04-27 17:29 |
|---|---|
| Airport | Ramon International Airport (LLER) |
| Time | Latitude | Longitude | Altitude | Speed | Heading |
|---|---|---|---|---|---|
| 2026-04-27 14:55 | 39.61165 | 19.91155 | 8 ft | 0 kts | 260° |
| 2026-04-27 15:05 | 39.61164 | 19.91146 | 8 ft | 5 kts | 255° |
| 2026-04-27 15:06 | 39.61078 | 19.91117 | 8 ft | 21 kts | 173° |
| 2026-04-27 15:06 | 39.60965 | 19.91143 | 8 ft | 13 kts | 168° |
| 2026-04-27 15:06 | 39.60874 | 19.91169 | 8 ft | 13 kts | 168° |
| 2026-04-27 15:06 | 39.60779 | 19.91194 | 7 ft | 14 kts | 169° |
| 2026-04-27 15:07 | 39.60674 | 19.91220 | 5 ft | 16 kts | 169° |
| 2026-04-27 15:07 | 39.60599 | 19.91220 | 4 ft | 0 kts | 214° |
| 2026-04-27 15:07 | 39.60598 | 19.91220 | 4 ft | 0 kts | 214° |
| 2026-04-27 15:15 | 39.60589 | 19.91211 | 4 ft | 9 kts | 216° |
| 2026-04-27 15:15 | 39.60508 | 19.91150 | 5 ft | 14 kts | 188° |
| 2026-04-27 15:15 | 39.60395 | 19.91166 | 4 ft | 26 kts | 173° |
| 2026-04-27 15:15 | 39.60116 | 19.91233 | 4 ft | 44 kts | 168° |
| 2026-04-27 15:16 | 39.59821 | 19.91309 | 7 ft | 41 kts | 168° |
| 2026-04-27 15:16 | 39.59544 | 19.91383 | 7 ft | 39 kts | 169° |
| 2026-04-27 15:16 | 39.59280 | 19.91452 | 7 ft | 34 kts | 167° |
| 2026-04-27 15:16 | 39.59171 | 19.91478 | 7 ft | 5 kts | 327° |
| 2026-04-27 15:17 | 39.59176 | 19.91476 | 7 ft | 0 kts | 351° |
| 2026-04-27 15:17 | 39.59261 | 19.91457 | 7 ft | 54 kts | 349° |
| 2026-04-27 15:18 | 39.60010 | 19.91265 | 17 ft | 157 kts | 349° |
| 2026-04-27 15:18 | 39.61161 | 19.91008 | 876 ft | 175 kts | 350° |
| 2026-04-27 15:18 | 39.62318 | 19.90706 | 2084 ft | 179 kts | 348° |
| 2026-04-27 15:18 | 39.63544 | 19.90355 | 2959 ft | 188 kts | 348° |
| 2026-04-27 15:19 | 39.64813 | 19.89856 | 3867 ft | 195 kts | 326° |
| 2026-04-27 15:19 | 39.65599 | 19.88428 | 4629 ft | 208 kts | 280° |
| 2026-04-27 15:19 | 39.65383 | 19.86583 | 5406 ft | 218 kts | 242° |
| 2026-04-27 15:19 | 39.64722 | 19.84800 | 6289 ft | 227 kts | 246° |
| 2026-04-27 15:20 | 39.64257 | 19.82844 | 7210 ft | 235 kts | 267° |
| 2026-04-27 15:20 | 39.64693 | 19.80807 | 7987 ft | 249 kts | 300° |
| 2026-04-27 15:20 | 39.65591 | 19.78826 | 8715 ft | 263 kts | 295° |
| 2026-04-27 15:20 | 39.65922 | 19.76454 | 9349 ft | 277 kts | 261° |
| 2026-04-27 15:21 | 39.65122 | 19.74174 | 10014 ft | 288 kts | 227° |
| 2026-04-27 15:21 | 39.63437 | 19.72782 | 10717 ft | 298 kts | 197° |
| 2026-04-27 15:21 | 39.61298 | 19.72708 | 11297 ft | 314 kts | 166° |
| 2026-04-27 15:21 | 39.59390 | 19.74071 | 11969 ft | 325 kts | 136° |
| 2026-04-27 15:22 | 39.58187 | 19.76598 | 12715 ft | 332 kts | 107° |
| 2026-04-27 15:22 | 39.57882 | 19.79557 | 13469 ft | 336 kts | 96° |
| 2026-04-27 15:22 | 39.57101 | 19.82397 | 14192 ft | 341 kts | 123° |
| 2026-04-27 15:22 | 39.55790 | 19.84964 | 14961 ft | 346 kts | 122° |
| 2026-04-27 15:23 | 39.54462 | 19.87585 | 15708 ft | 350 kts | 124° |
| 2026-04-27 15:23 | 39.53120 | 19.90218 | 16423 ft | 355 kts | 124° |
| 2026-04-27 15:23 | 39.51732 | 19.92931 | 17150 ft | 360 kts | 124° |
| 2026-04-27 15:23 | 39.50350 | 19.95632 | 17840 ft | 364 kts | 124° |
| 2026-04-27 15:24 | 39.48960 | 19.98349 | 18533 ft | 368 kts | 124° |
| 2026-04-27 15:24 | 39.47520 | 20.01157 | 19200 ft | 373 kts | 123° |
| 2026-04-27 15:24 | 39.46089 | 20.03950 | 19811 ft | 377 kts | 123° |
| 2026-04-27 15:24 | 39.44597 | 20.06789 | 20472 ft | 382 kts | 128° |
| 2026-04-27 15:25 | 39.42643 | 20.09098 | 21074 ft | 384 kts | 143° |
| 2026-04-27 15:25 | 39.40526 | 20.11286 | 21711 ft | 388 kts | 142° |
| 2026-04-27 15:25 | 39.38398 | 20.13479 | 22300 ft | 392 kts | 142° |
| 2026-04-27 15:25 | 39.36250 | 20.15705 | 22864 ft | 396 kts | 142° |
| 2026-04-27 15:26 | 39.34103 | 20.17927 | 23417 ft | 400 kts | 142° |
| 2026-04-27 15:26 | 39.31893 | 20.20210 | 24018 ft | 403 kts | 142° |
| 2026-04-27 15:26 | 39.29710 | 20.22466 | 24576 ft | 407 kts | 142° |
| 2026-04-27 15:26 | 39.27488 | 20.24760 | 25145 ft | 410 kts | 142° |
| 2026-04-27 15:27 | 39.25251 | 20.27066 | 25716 ft | 413 kts | 142° |
| 2026-04-27 15:27 | 39.22988 | 20.29397 | 26252 ft | 416 kts | 142° |
| 2026-04-27 15:27 | 39.20692 | 20.31762 | 26795 ft | 418 kts | 142° |
| 2026-04-27 15:27 | 39.18405 | 20.34120 | 27314 ft | 421 kts | 142° |
| 2026-04-27 15:28 | 39.16085 | 20.36509 | 27832 ft | 424 kts | 142° |
| 2026-04-27 15:28 | 39.13763 | 20.38897 | 28337 ft | 427 kts | 142° |
| 2026-04-27 15:28 | 39.11430 | 20.41296 | 28837 ft | 430 kts | 142° |
| 2026-04-27 15:28 | 39.09077 | 20.43711 | 29332 ft | 432 kts | 142° |
| 2026-04-27 15:29 | 39.06697 | 20.46154 | 29807 ft | 435 kts | 142° |
| 2026-04-27 15:29 | 39.04316 | 20.48570 | 30252 ft | 437 kts | 143° |
| 2026-04-27 15:29 | 39.01871 | 20.51008 | 30688 ft | 440 kts | 142° |
| 2026-04-27 15:29 | 38.99422 | 20.53455 | 31099 ft | 443 kts | 142° |
| 2026-04-27 15:30 | 38.96925 | 20.55944 | 31547 ft | 445 kts | 142° |
| 2026-04-27 15:30 | 38.94484 | 20.58377 | 31944 ft | 448 kts | 142° |
| 2026-04-27 15:30 | 38.92003 | 20.60848 | 32286 ft | 452 kts | 143° |
| 2026-04-27 15:30 | 38.89476 | 20.63362 | 32671 ft | 454 kts | 143° |
| 2026-04-27 15:31 | 38.86945 | 20.65890 | 33021 ft | 458 kts | 143° |
| 2026-04-27 15:31 | 38.84460 | 20.68457 | 33375 ft | 460 kts | 142° |
| 2026-04-27 15:31 | 38.81960 | 20.71029 | 33730 ft | 463 kts | 143° |
| 2026-04-27 15:31 | 38.79426 | 20.73636 | 34061 ft | 466 kts | 143° |
| 2026-04-27 15:32 | 38.76876 | 20.76258 | 34373 ft | 469 kts | 143° |
| 2026-04-27 15:32 | 38.74295 | 20.78908 | 34773 ft | 469 kts | 143° |
| 2026-04-27 15:32 | 38.71762 | 20.81507 | 35135 ft | 469 kts | 143° |
| 2026-04-27 15:32 | 38.69178 | 20.84153 | 35523 ft | 469 kts | 143° |
| 2026-04-27 15:33 | 38.66602 | 20.86791 | 35898 ft | 469 kts | 143° |
| 2026-04-27 15:33 | 38.64046 | 20.89406 | 36229 ft | 469 kts | 143° |
| 2026-04-27 15:33 | 38.61458 | 20.92049 | 36621 ft | 470 kts | 143° |
| 2026-04-27 15:33 | 38.58917 | 20.94666 | 37095 ft | 470 kts | 141° |
| 2026-04-27 15:34 | 38.56455 | 20.97468 | 37572 ft | 470 kts | 140° |
| 2026-04-27 15:34 | 38.54002 | 21.00245 | 38038 ft | 470 kts | 140° |
| 2026-04-27 15:34 | 38.51529 | 21.03037 | 38457 ft | 471 kts | 141° |
| 2026-04-27 15:34 | 38.49066 | 21.05814 | 38961 ft | 473 kts | 141° |
| 2026-04-27 15:35 | 38.46587 | 21.08604 | 39526 ft | 473 kts | 141° |
| 2026-04-27 15:35 | 38.44107 | 21.11396 | 39995 ft | 474 kts | 141° |
| 2026-04-27 15:35 | 38.41629 | 21.14175 | 40426 ft | 474 kts | 141° |
| 2026-04-27 15:35 | 38.39136 | 21.16973 | 40818 ft | 475 kts | 141° |
| 2026-04-27 15:36 | 38.36641 | 21.19771 | 41156 ft | 476 kts | 141° |
| 2026-04-27 15:36 | 38.34114 | 21.22602 | 41498 ft | 478 kts | 141° |
| 2026-04-27 15:36 | 38.31607 | 21.25411 | 41829 ft | 479 kts | 141° |
| 2026-04-27 15:36 | 38.29072 | 21.28243 | 42185 ft | 480 kts | 141° |
| 2026-04-27 15:37 | 38.26553 | 21.31061 | 42535 ft | 480 kts | 141° |
| 2026-04-27 15:37 | 38.24050 | 21.33854 | 42878 ft | 481 kts | 141° |
| 2026-04-27 15:37 | 38.21519 | 21.36674 | 43215 ft | 481 kts | 141° |
| 2026-04-27 15:37 | 38.18983 | 21.39501 | 43532 ft | 481 kts | 141° |
| 2026-04-27 15:38 | 38.16434 | 21.42336 | 43844 ft | 481 kts | 141° |
| 2026-04-27 15:38 | 38.13990 | 21.45233 | 44126 ft | 483 kts | 137° |
| 2026-04-27 15:38 | 38.11545 | 21.48251 | 44410 ft | 484 kts | 138° |
| 2026-04-27 15:38 | 38.09107 | 21.51233 | 44689 ft | 484 kts | 138° |
| 2026-04-27 15:39 | 38.06684 | 21.54189 | 44979 ft | 485 kts | 138° |
| 2026-04-27 15:39 | 38.04248 | 21.57159 | 45078 ft | 491 kts | 138° |
| 2026-04-27 15:39 | 37.99217 | 21.63284 | 45100 ft | 505 kts | 138° |
| 2026-04-27 15:40 | 37.94112 | 21.69488 | 45112 ft | 519 kts | 139° |
| 2026-04-27 15:40 | 37.88817 | 21.75908 | 45117 ft | 532 kts | 139° |
| 2026-04-27 15:41 | 37.83389 | 21.82473 | 45123 ft | 544 kts | 139° |
| 2026-04-27 15:41 | 37.77874 | 21.89129 | 45126 ft | 553 kts | 139° |
| 2026-04-27 15:42 | 37.72284 | 21.95866 | 45124 ft | 558 kts | 139° |
| 2026-04-27 15:42 | 37.66636 | 22.02651 | 45113 ft | 560 kts | 139° |
| 2026-04-27 15:43 | 37.60986 | 22.09429 | 45121 ft | 560 kts | 139° |
| 2026-04-27 15:43 | 37.55302 | 22.16232 | 45117 ft | 560 kts | 139° |
| 2026-04-27 15:44 | 37.49654 | 22.22973 | 45122 ft | 559 kts | 139° |
| 2026-04-27 15:44 | 37.44024 | 22.29680 | 45130 ft | 560 kts | 139° |
| 2026-04-27 15:45 | 37.38717 | 22.36851 | 45148 ft | 562 kts | 126° |
| 2026-04-27 15:45 | 37.34153 | 22.44869 | 45141 ft | 564 kts | 127° |
| 2026-04-27 15:46 | 37.29539 | 22.52902 | 45124 ft | 565 kts | 127° |
| 2026-04-27 15:46 | 37.24942 | 22.60880 | 45137 ft | 564 kts | 127° |
| 2026-04-27 15:47 | 37.20354 | 22.68826 | 45130 ft | 564 kts | 128° |
| 2026-04-27 15:47 | 37.15740 | 22.76791 | 45147 ft | 564 kts | 128° |
| 2026-04-27 15:48 | 37.11126 | 22.84745 | 45115 ft | 564 kts | 128° |
| 2026-04-27 15:49 | 37.04213 | 22.96623 | 45104 ft | 564 kts | 128° |
| 2026-04-27 15:49 | 36.99595 | 23.04535 | 45080 ft | 564 kts | 128° |
| 2026-04-27 15:50 | 36.94944 | 23.12484 | 45084 ft | 565 kts | 128° |
| 2026-04-27 15:50 | 36.90318 | 23.20371 | 45082 ft | 566 kts | 128° |
| 2026-04-27 15:51 | 36.85637 | 23.28334 | 45075 ft | 566 kts | 128° |
| 2026-04-27 15:51 | 36.80992 | 23.36214 | 45074 ft | 566 kts | 128° |
| 2026-04-27 15:52 | 36.76294 | 23.44141 | 45076 ft | 567 kts | 128° |
| 2026-04-27 15:52 | 36.71572 | 23.52085 | 45071 ft | 567 kts | 128° |
| 2026-04-27 15:53 | 36.66870 | 23.59983 | 45063 ft | 567 kts | 128° |
| 2026-04-27 15:53 | 36.62164 | 23.67871 | 45057 ft | 567 kts | 128° |
| 2026-04-27 15:54 | 36.57462 | 23.75729 | 45057 ft | 567 kts | 128° |
| 2026-04-27 15:54 | 36.52773 | 23.83549 | 45048 ft | 568 kts | 128° |
| 2026-04-27 15:55 | 36.48048 | 23.91413 | 45052 ft | 567 kts | 129° |
| 2026-04-27 15:55 | 36.43324 | 23.99253 | 45046 ft | 568 kts | 128° |
| 2026-04-27 15:56 | 36.38590 | 24.07118 | 45047 ft | 569 kts | 128° |
| 2026-04-27 15:56 | 36.33857 | 24.15012 | 45050 ft | 569 kts | 128° |
| 2026-04-27 15:57 | 36.29137 | 24.22863 | 45050 ft | 570 kts | 128° |
| 2026-04-27 15:57 | 36.24394 | 24.30732 | 45048 ft | 571 kts | 128° |
| 2026-04-27 15:58 | 36.19638 | 24.38596 | 45052 ft | 570 kts | 129° |
| 2026-04-27 15:58 | 36.14861 | 24.46430 | 45052 ft | 571 kts | 129° |
| 2026-04-27 15:59 | 36.10083 | 24.54246 | 45055 ft | 571 kts | 128° |
| 2026-04-27 15:59 | 36.05272 | 24.62108 | 45053 ft | 571 kts | 128° |
| 2026-04-27 16:00 | 36.00455 | 24.69957 | 45045 ft | 571 kts | 129° |
| 2026-04-27 16:00 | 35.95634 | 24.77794 | 45047 ft | 571 kts | 129° |
| 2026-04-27 16:01 | 35.90802 | 24.85634 | 45044 ft | 570 kts | 129° |
| 2026-04-27 16:01 | 35.86000 | 24.93404 | 45043 ft | 570 kts | 129° |
| 2026-04-27 16:02 | 35.81161 | 25.01217 | 45038 ft | 571 kts | 129° |
| 2026-04-27 16:02 | 35.76313 | 25.09029 | 45042 ft | 572 kts | 129° |
| 2026-04-27 16:03 | 35.71455 | 25.16838 | 45038 ft | 572 kts | 129° |
| 2026-04-27 16:03 | 35.66589 | 25.24631 | 45039 ft | 573 kts | 129° |
| 2026-04-27 16:04 | 35.61702 | 25.32439 | 45034 ft | 572 kts | 129° |
| 2026-04-27 16:04 | 35.56845 | 25.40182 | 45040 ft | 572 kts | 129° |
| 2026-04-27 16:05 | 35.51976 | 25.47921 | 45040 ft | 572 kts | 129° |
| 2026-04-27 16:05 | 35.47058 | 25.55728 | 45044 ft | 573 kts | 129° |
| 2026-04-27 16:06 | 35.42144 | 25.63508 | 45041 ft | 574 kts | 129° |
| 2026-04-27 16:06 | 35.37241 | 25.71254 | 45036 ft | 574 kts | 130° |
| 2026-04-27 16:07 | 35.32301 | 25.79043 | 45027 ft | 574 kts | 130° |
| 2026-04-27 16:07 | 35.27407 | 25.86735 | 45028 ft | 575 kts | 130° |
| 2026-04-27 16:08 | 35.22447 | 25.94522 | 45029 ft | 575 kts | 130° |
| 2026-04-27 16:08 | 35.17500 | 26.02265 | 45027 ft | 576 kts | 130° |
| 2026-04-27 16:09 | 35.12561 | 26.09980 | 45028 ft | 577 kts | 130° |
| 2026-04-27 16:09 | 35.05339 | 26.21766 | 45032 ft | 579 kts | 123° |
| 2026-04-27 16:10 | 34.96807 | 26.38511 | 45017 ft | 579 kts | 123° |
| 2026-04-27 16:11 | 34.90384 | 26.51016 | 45020 ft | 579 kts | 123° |
| 2026-04-27 16:12 | 34.83926 | 26.63541 | 45010 ft | 579 kts | 123° |
| 2026-04-27 16:13 | 34.77517 | 26.75924 | 45001 ft | 578 kts | 124° |
| 2026-04-27 16:13 | 34.71067 | 26.88346 | 45007 ft | 578 kts | 124° |
| 2026-04-27 16:14 | 34.62445 | 27.04878 | 45007 ft | 579 kts | 124° |
| 2026-04-27 16:15 | 34.53798 | 27.21386 | 45007 ft | 579 kts | 124° |
| 2026-04-27 16:16 | 34.45128 | 27.37859 | 45008 ft | 578 kts | 124° |
| 2026-04-27 16:17 | 34.36433 | 27.54300 | 45010 ft | 579 kts | 124° |
| 2026-04-27 16:18 | 34.27722 | 27.70704 | 45004 ft | 579 kts | 125° |
| 2026-04-27 16:19 | 34.23351 | 27.78904 | 45002 ft | 578 kts | 125° |
| 2026-04-27 16:20 | 34.14637 | 27.95195 | 44999 ft | 579 kts | 124° |
| 2026-04-27 16:21 | 34.08055 | 28.07451 | 45008 ft | 578 kts | 124° |
| 2026-04-27 16:22 | 33.99299 | 28.23695 | 45011 ft | 577 kts | 124° |
| 2026-04-27 16:22 | 33.92695 | 28.35900 | 45014 ft | 577 kts | 124° |
| 2026-04-27 16:23 | 33.86113 | 28.48022 | 45012 ft | 577 kts | 124° |
| 2026-04-27 16:24 | 33.81697 | 28.56127 | 45015 ft | 577 kts | 124° |
| 2026-04-27 16:25 | 33.72888 | 28.72251 | 45008 ft | 576 kts | 125° |
| 2026-04-27 16:26 | 33.65657 | 28.89531 | 44999 ft | 578 kts | 116° |
| 2026-04-27 16:27 | 33.58762 | 29.06934 | 45009 ft | 578 kts | 116° |
| 2026-04-27 16:28 | 33.50130 | 29.28601 | 44999 ft | 578 kts | 116° |
| 2026-04-27 16:29 | 33.41434 | 29.50289 | 44998 ft | 577 kts | 116° |
| 2026-04-27 16:30 | 33.34459 | 29.67591 | 44985 ft | 577 kts | 117° |
| 2026-04-27 16:31 | 33.25709 | 29.89169 | 44985 ft | 576 kts | 117° |
| 2026-04-27 16:32 | 33.20458 | 30.02047 | 44989 ft | 576 kts | 117° |
| 2026-04-27 16:33 | 33.15200 | 30.14903 | 44987 ft | 576 kts | 117° |
| 2026-04-27 16:33 | 33.11691 | 30.23453 | 44987 ft | 575 kts | 117° |
| 2026-04-27 16:34 | 33.08167 | 30.32029 | 44987 ft | 576 kts | 117° |
| 2026-04-27 16:34 | 33.04628 | 30.40606 | 44991 ft | 576 kts | 117° |
| 2026-04-27 16:35 | 33.01079 | 30.49192 | 44994 ft | 576 kts | 117° |
| 2026-04-27 16:36 | 32.95763 | 30.62013 | 44995 ft | 577 kts | 117° |
| 2026-04-27 16:36 | 32.92209 | 30.70559 | 44984 ft | 576 kts | 118° |
| 2026-04-27 16:37 | 32.88630 | 30.79143 | 44982 ft | 576 kts | 118° |
| 2026-04-27 16:37 | 32.85057 | 30.87694 | 44980 ft | 576 kts | 118° |
| 2026-04-27 16:38 | 32.81482 | 30.96223 | 44981 ft | 576 kts | 118° |
| 2026-04-27 16:38 | 32.77929 | 31.04684 | 44986 ft | 576 kts | 118° |
| 2026-04-27 16:39 | 32.74322 | 31.13252 | 44985 ft | 576 kts | 118° |
| 2026-04-27 16:39 | 32.70712 | 31.21806 | 44983 ft | 575 kts | 118° |
| 2026-04-27 16:40 | 32.67128 | 31.30278 | 44984 ft | 575 kts | 118° |
| 2026-04-27 16:40 | 32.63531 | 31.38762 | 44987 ft | 575 kts | 118° |
| 2026-04-27 16:41 | 32.59925 | 31.47246 | 44981 ft | 575 kts | 118° |
| 2026-04-27 16:41 | 32.56312 | 31.55727 | 44985 ft | 575 kts | 118° |
| 2026-04-27 16:42 | 32.52678 | 31.64236 | 44991 ft | 575 kts | 118° |
| 2026-04-27 16:42 | 32.49075 | 31.72650 | 44974 ft | 574 kts | 119° |
| 2026-04-27 16:43 | 32.45432 | 31.81141 | 44977 ft | 573 kts | 119° |
| 2026-04-27 16:43 | 32.41823 | 31.89531 | 44983 ft | 573 kts | 119° |
| 2026-04-27 16:44 | 32.38172 | 31.98000 | 44976 ft | 573 kts | 119° |
| 2026-04-27 16:44 | 32.34533 | 32.06419 | 44975 ft | 573 kts | 119° |
| 2026-04-27 16:45 | 32.30881 | 32.14849 | 44980 ft | 572 kts | 119° |
| 2026-04-27 16:45 | 32.27259 | 32.23195 | 44978 ft | 573 kts | 119° |
| 2026-04-27 16:46 | 32.23614 | 32.31569 | 44979 ft | 572 kts | 119° |
| 2026-04-27 16:46 | 32.19955 | 32.39962 | 44974 ft | 572 kts | 119° |
| 2026-04-27 16:47 | 32.16284 | 32.48266 | 44964 ft | 571 kts | 122° |
| 2026-04-27 16:47 | 32.12122 | 32.56350 | 44971 ft | 571 kts | 123° |
| 2026-04-27 16:48 | 32.07971 | 32.64355 | 44974 ft | 570 kts | 123° |
| 2026-04-27 16:48 | 32.03798 | 32.72389 | 44963 ft | 570 kts | 124° |
| 2026-04-27 16:49 | 31.97577 | 32.84339 | 44964 ft | 568 kts | 124° |
| 2026-04-27 16:49 | 31.93448 | 32.92251 | 44966 ft | 568 kts | 124° |
| 2026-04-27 16:50 | 31.89306 | 33.00166 | 44967 ft | 568 kts | 124° |
| 2026-04-27 16:50 | 31.85206 | 33.08107 | 44944 ft | 569 kts | 119° |
| 2026-04-27 16:51 | 31.83935 | 33.12522 | 44994 ft | 571 kts | 101° |
| 2026-04-27 16:51 | 31.83762 | 33.17168 | 44976 ft | 572 kts | 85° |
| 2026-04-27 16:51 | 31.84446 | 33.26503 | 44984 ft | 575 kts | 84° |
| 2026-04-27 16:52 | 31.85148 | 33.35817 | 44967 ft | 576 kts | 84° |
| 2026-04-27 16:52 | 31.85858 | 33.45233 | 44966 ft | 576 kts | 84° |
| 2026-04-27 16:53 | 31.86564 | 33.54632 | 44971 ft | 576 kts | 84° |
| 2026-04-27 16:53 | 31.87271 | 33.64039 | 44973 ft | 577 kts | 84° |
| 2026-04-27 16:54 | 31.87981 | 33.73389 | 44965 ft | 576 kts | 84° |
| 2026-04-27 16:54 | 31.88701 | 33.82762 | 44964 ft | 576 kts | 85° |
| 2026-04-27 16:55 | 31.89445 | 33.92203 | 44965 ft | 575 kts | 84° |
| 2026-04-27 16:55 | 31.90183 | 34.01563 | 44964 ft | 576 kts | 84° |
| 2026-04-27 16:56 | 31.90929 | 34.10965 | 44968 ft | 576 kts | 84° |
| 2026-04-27 16:56 | 31.91685 | 34.20361 | 44967 ft | 576 kts | 84° |
| 2026-04-27 16:57 | 31.92440 | 34.29741 | 44967 ft | 576 kts | 84° |
| 2026-04-27 16:57 | 31.93202 | 34.39204 | 44967 ft | 577 kts | 84° |
| 2026-04-27 16:58 | 31.93954 | 34.48547 | 44970 ft | 578 kts | 84° |
| 2026-04-27 16:58 | 31.94729 | 34.57996 | 44970 ft | 578 kts | 84° |
| 2026-04-27 16:59 | 31.95509 | 34.67375 | 44964 ft | 577 kts | 85° |
| 2026-04-27 16:59 | 31.96319 | 34.76790 | 44957 ft | 578 kts | 85° |
| 2026-04-27 17:00 | 31.97523 | 34.90925 | 44970 ft | 577 kts | 85° |
| 2026-04-27 17:00 | 31.97679 | 34.95569 | 44923 ft | 574 kts | 96° |
| 2026-04-27 17:01 | 31.96811 | 35.00149 | 44625 ft | 574 kts | 113° |
| 2026-04-27 17:01 | 31.94937 | 35.04251 | 44090 ft | 563 kts | 128° |
| 2026-04-27 17:01 | 31.92435 | 35.07864 | 43517 ft | 554 kts | 141° |
| 2026-04-27 17:01 | 31.89314 | 35.10408 | 42990 ft | 539 kts | 159° |
| 2026-04-27 17:02 | 31.85829 | 35.11980 | 42514 ft | 535 kts | 164° |
| 2026-04-27 17:02 | 31.82411 | 35.13658 | 41976 ft | 539 kts | 161° |
| 2026-04-27 17:02 | 31.78904 | 35.15459 | 41421 ft | 542 kts | 161° |
| 2026-04-27 17:02 | 31.75473 | 35.17240 | 40879 ft | 544 kts | 161° |
| 2026-04-27 17:03 | 31.72012 | 35.19041 | 40332 ft | 546 kts | 161° |
| 2026-04-27 17:03 | 31.68501 | 35.20865 | 39790 ft | 546 kts | 161° |
| 2026-04-27 17:03 | 31.65032 | 35.22669 | 39246 ft | 547 kts | 161° |
| 2026-04-27 17:03 | 31.61536 | 35.24483 | 38697 ft | 549 kts | 160° |
| 2026-04-27 17:04 | 31.58000 | 35.26319 | 38149 ft | 550 kts | 160° |
| 2026-04-27 17:04 | 31.54497 | 35.28135 | 37655 ft | 551 kts | 160° |
| 2026-04-27 17:04 | 31.50944 | 35.29975 | 37188 ft | 552 kts | 160° |
| 2026-04-27 17:04 | 31.47413 | 35.31801 | 36721 ft | 552 kts | 160° |
| 2026-04-27 17:05 | 31.43896 | 35.33619 | 36261 ft | 553 kts | 160° |
| 2026-04-27 17:05 | 31.40371 | 35.35440 | 35801 ft | 553 kts | 160° |
| 2026-04-27 17:05 | 31.36848 | 35.37260 | 35347 ft | 553 kts | 160° |
| 2026-04-27 17:05 | 31.34420 | 35.38334 | 35051 ft | 548 kts | 168° |
| 2026-04-27 17:06 | 31.29451 | 35.38789 | 34566 ft | 532 kts | 189° |
| 2026-04-27 17:06 | 31.25713 | 35.38390 | 34212 ft | 533 kts | 189° |
| 2026-04-27 17:06 | 31.21974 | 35.37991 | 33810 ft | 534 kts | 189° |
| 2026-04-27 17:06 | 31.18263 | 35.37603 | 33377 ft | 535 kts | 189° |
| 2026-04-27 17:07 | 31.14517 | 35.37209 | 32896 ft | 536 kts | 189° |
| 2026-04-27 17:07 | 31.10798 | 35.36826 | 32423 ft | 537 kts | 189° |
| 2026-04-27 17:07 | 31.07061 | 35.36444 | 31947 ft | 537 kts | 189° |
| 2026-04-27 17:07 | 31.03298 | 35.36052 | 31467 ft | 537 kts | 189° |
| 2026-04-27 17:08 | 30.99547 | 35.35670 | 30994 ft | 538 kts | 189° |
| 2026-04-27 17:08 | 30.95836 | 35.35272 | 30522 ft | 537 kts | 191° |
| 2026-04-27 17:08 | 30.92260 | 35.34145 | 29992 ft | 525 kts | 207° |
| 2026-04-27 17:08 | 30.88876 | 35.32418 | 29527 ft | 525 kts | 206° |
| 2026-04-27 17:09 | 30.85562 | 35.30800 | 29028 ft | 502 kts | 208° |
| 2026-04-27 17:09 | 30.82408 | 35.29243 | 28500 ft | 479 kts | 207° |
| 2026-04-27 17:09 | 30.79403 | 35.27757 | 27977 ft | 460 kts | 207° |
| 2026-04-27 17:09 | 30.76469 | 35.26313 | 27441 ft | 444 kts | 208° |
| 2026-04-27 17:10 | 30.73673 | 35.24936 | 26910 ft | 431 kts | 208° |
| 2026-04-27 17:10 | 30.70953 | 35.23599 | 26381 ft | 420 kts | 208° |
| 2026-04-27 17:10 | 30.68292 | 35.22289 | 25852 ft | 410 kts | 208° |
| 2026-04-27 17:10 | 30.65686 | 35.21009 | 25328 ft | 403 kts | 208° |
| 2026-04-27 17:11 | 30.63114 | 35.19747 | 24802 ft | 396 kts | 208° |
| 2026-04-27 17:11 | 30.58103 | 35.17288 | 23755 ft | 385 kts | 208° |
| 2026-04-27 17:11 | 30.55600 | 35.16165 | 23217 ft | 386 kts | 200° |
| 2026-04-27 17:12 | 30.50273 | 35.15103 | 22226 ft | 382 kts | 194° |
| 2026-04-27 17:12 | 30.47650 | 35.14602 | 21734 ft | 378 kts | 194° |
| 2026-04-27 17:12 | 30.45031 | 35.14095 | 21247 ft | 380 kts | 194° |
| 2026-04-27 17:13 | 30.42385 | 35.13582 | 20758 ft | 383 kts | 194° |
| 2026-04-27 17:13 | 30.39746 | 35.13075 | 20271 ft | 385 kts | 194° |
| 2026-04-27 17:13 | 30.37072 | 35.12560 | 19783 ft | 387 kts | 193° |
| 2026-04-27 17:13 | 30.34416 | 35.12048 | 19299 ft | 388 kts | 193° |
| 2026-04-27 17:14 | 30.31768 | 35.11542 | 18793 ft | 389 kts | 193° |
| 2026-04-27 17:14 | 30.29079 | 35.11041 | 18305 ft | 389 kts | 193° |
| 2026-04-27 17:14 | 30.26409 | 35.10539 | 17820 ft | 389 kts | 193° |
| 2026-04-27 17:14 | 30.23728 | 35.10037 | 17329 ft | 389 kts | 193° |
| 2026-04-27 17:15 | 30.21044 | 35.09507 | 16844 ft | 388 kts | 194° |
| 2026-04-27 17:15 | 30.18386 | 35.08953 | 16370 ft | 387 kts | 194° |
| 2026-04-27 17:15 | 30.15740 | 35.08405 | 15893 ft | 386 kts | 194° |
| 2026-04-27 17:15 | 30.13081 | 35.07853 | 15407 ft | 384 kts | 193° |
| 2026-04-27 17:16 | 30.10457 | 35.07312 | 14920 ft | 383 kts | 193° |
| 2026-04-27 17:16 | 30.07839 | 35.06768 | 14433 ft | 381 kts | 193° |
| 2026-04-27 17:16 | 30.05198 | 35.06240 | 13950 ft | 379 kts | 193° |
| 2026-04-27 17:16 | 30.02620 | 35.05736 | 13479 ft | 377 kts | 193° |
| 2026-04-27 17:17 | 30.00039 | 35.05234 | 12988 ft | 376 kts | 192° |
| 2026-04-27 17:17 | 29.97477 | 35.04733 | 12505 ft | 374 kts | 192° |
| 2026-04-27 17:17 | 29.94889 | 35.04226 | 12004 ft | 372 kts | 192° |
| 2026-04-27 17:18 | 29.89786 | 35.03233 | 11018 ft | 369 kts | 192° |
| 2026-04-27 17:18 | 29.87248 | 35.02743 | 10496 ft | 367 kts | 192° |
| 2026-04-27 17:18 | 29.84727 | 35.02259 | 9973 ft | 366 kts | 191° |
| 2026-04-27 17:18 | 29.82220 | 35.01810 | 9419 ft | 359 kts | 187° |
| 2026-04-27 17:19 | 29.79772 | 35.01870 | 8788 ft | 344 kts | 178° |
| 2026-04-27 17:19 | 29.77453 | 35.01954 | 8198 ft | 326 kts | 179° |
| 2026-04-27 17:19 | 29.75249 | 35.01893 | 7617 ft | 309 kts | 193° |
| 2026-04-27 17:19 | 29.73345 | 35.00970 | 7090 ft | 294 kts | 210° |
| 2026-04-27 17:20 | 29.71529 | 34.99944 | 6544 ft | 286 kts | 208° |
| 2026-04-27 17:20 | 29.69742 | 34.98930 | 5996 ft | 279 kts | 207° |
| 2026-04-27 17:20 | 29.67993 | 34.97975 | 5458 ft | 274 kts | 206° |
| 2026-04-27 17:20 | 29.66281 | 34.97052 | 4925 ft | 270 kts | 208° |
| 2026-04-27 17:21 | 29.64613 | 34.96121 | 4398 ft | 266 kts | 208° |
| 2026-04-27 17:21 | 29.62945 | 34.95187 | 3865 ft | 263 kts | 208° |
| 2026-04-27 17:21 | 29.61306 | 34.94267 | 3479 ft | 262 kts | 208° |
| 2026-04-27 17:21 | 29.59670 | 34.93350 | 3128 ft | 260 kts | 208° |
| 2026-04-27 17:22 | 29.58070 | 34.92451 | 3037 ft | 250 kts | 208° |
| 2026-04-27 17:22 | 29.56526 | 34.91587 | 3020 ft | 241 kts | 208° |
| 2026-04-27 17:22 | 29.55047 | 34.90758 | 3029 ft | 232 kts | 208° |
| 2026-04-27 17:22 | 29.53512 | 34.90341 | 3026 ft | 228 kts | 175° |
| 2026-04-27 17:23 | 29.52084 | 34.91047 | 3043 ft | 219 kts | 135° |
| 2026-04-27 17:23 | 29.51356 | 34.92441 | 3034 ft | 193 kts | 98° |
| 2026-04-27 17:23 | 29.51386 | 34.93858 | 3015 ft | 166 kts | 65° |
| 2026-04-27 17:23 | 29.52010 | 34.94830 | 3015 ft | 143 kts | 36° |
| 2026-04-27 17:24 | 29.52788 | 34.95440 | 3002 ft | 130 kts | 24° |
| 2026-04-27 17:24 | 29.53579 | 34.95848 | 3061 ft | 117 kts | 16° |
| 2026-04-27 17:24 | 29.54344 | 34.96151 | 3027 ft | 116 kts | 14° |
| 2026-04-27 17:24 | 29.55130 | 34.96430 | 3039 ft | 119 kts | 13° |
| 2026-04-27 17:25 | 29.55946 | 34.96697 | 3035 ft | 123 kts | 12° |
| 2026-04-27 17:25 | 29.56796 | 34.96956 | 2993 ft | 131 kts | 11° |
| 2026-04-27 17:25 | 29.57666 | 34.97212 | 2838 ft | 123 kts | 11° |
| 2026-04-27 17:25 | 29.58478 | 34.97447 | 2673 ft | 118 kts | 10° |
| 2026-04-27 17:26 | 29.59295 | 34.97676 | 2540 ft | 122 kts | 10° |
| 2026-04-27 17:26 | 29.60142 | 34.97912 | 2402 ft | 126 kts | 10° |
| 2026-04-27 17:26 | 29.61009 | 34.98154 | 2252 ft | 129 kts | 10° |
| 2026-04-27 17:26 | 29.61897 | 34.98401 | 2084 ft | 133 kts | 10° |
| 2026-04-27 17:27 | 29.62812 | 34.98655 | 1909 ft | 136 kts | 10° |
| 2026-04-27 17:27 | 29.63741 | 34.98914 | 1729 ft | 139 kts | 10° |
| 2026-04-27 17:27 | 29.64710 | 34.99182 | 1539 ft | 141 kts | 10° |
| 2026-04-27 17:27 | 29.65673 | 34.99450 | 1352 ft | 144 kts | 10° |
| 2026-04-27 17:28 | 29.66655 | 34.99725 | 1159 ft | 142 kts | 10° |
| 2026-04-27 17:28 | 29.67602 | 34.99989 | 962 ft | 132 kts | 11° |
| 2026-04-27 17:28 | 29.69256 | 35.00448 | 645 ft | 117 kts | 9° |
| 2026-04-27 17:29 | 29.70050 | 35.00665 | 487 ft | 117 kts | 9° |
| 2026-04-27 17:29 | 29.70859 | 35.00893 | 353 ft | 119 kts | 10° |
| 2026-04-27 17:29 | 29.71656 | 35.01111 | 278 ft | 109 kts | 9° |
| 2026-04-27 17:29 | 29.72181 | 35.01255 | 286 ft | 39 kts | 12° |
| 2026-04-27 17:30 | 29.72353 | 35.01303 | 288 ft | 19 kts | 351° |
| 2026-04-27 17:30 | 29.72406 | 35.01175 | 293 ft | 0 kts | 285° |
| 2026-04-27 17:31 | 29.72407 | 35.01172 | 293 ft | 5 kts | 286° |
| 2026-04-27 17:31 | 29.72396 | 35.01062 | 299 ft | 13 kts | 267° |
| 2026-04-27 17:31 | 29.72411 | 35.00967 | 304 ft | 12 kts | 283° |
| 2026-04-27 17:31 | 29.72448 | 35.00887 | 309 ft | 4 kts | 345° |
| 2026-04-27 17:32 | 29.72474 | 35.00853 | 312 ft | 8 kts | 283° |
| 2026-04-27 17:32 | 29.72487 | 35.00789 | 315 ft | 0 kts | 285° |